createdAt,value
2019-03-26T00:01:48.644Z,9.50
2019-03-26T00:04:17.063Z,9.20
2019-03-26T00:06:45.455Z,9.43
2019-03-26T00:09:16.974Z,9.43
2019-03-26T00:11:45.726Z,11.63
2019-03-26T00:14:14.121Z,9.90
2019-03-26T00:16:42.701Z,10.53
2019-03-26T00:19:11.091Z,9.77
2019-03-26T00:21:39.743Z,13.57
2019-03-26T00:24:08.150Z,12.83
2019-03-26T00:26:36.542Z,12.50
2019-03-26T00:29:05.323Z,15.43
2019-03-26T00:31:33.783Z,11.97
2019-03-26T00:34:02.187Z,16.23
2019-03-26T00:36:30.607Z,12.13
2019-03-26T00:38:58.995Z,14.77
2019-03-26T00:41:27.426Z,14.07
2019-03-26T00:43:56.075Z,15.20
2019-03-26T00:46:24.534Z,11.93
2019-03-26T00:48:52.946Z,15.83
2019-03-26T00:51:21.342Z,17.60
2019-03-26T00:53:49.752Z,18.07
2019-03-26T00:56:18.151Z,16.83
2019-03-26T00:58:46.831Z,16.17
2019-03-26T01:01:15.498Z,20.70
2019-03-26T01:03:43.983Z,18.47
2019-03-26T01:06:12.389Z,17.53
2019-03-26T01:08:40.881Z,19.50
2019-03-26T01:11:09.283Z,21.17
2019-03-26T01:13:37.681Z,23.90
2019-03-26T01:16:06.158Z,23.60
2019-03-26T01:18:34.591Z,22.03
2019-03-26T01:21:02.982Z,19.80
2019-03-26T01:23:31.453Z,17.83
2019-03-26T01:25:59.869Z,15.13
2019-03-26T01:28:28.339Z,17.57
2019-03-26T01:30:56.861Z,13.53
2019-03-26T01:33:25.253Z,12.53
2019-03-26T01:35:53.652Z,16.00
2019-03-26T01:38:22.063Z,12.67
2019-03-26T01:40:50.450Z,13.23
2019-03-26T01:43:18.854Z,13.13
2019-03-26T01:45:47.256Z,17.00
2019-03-26T01:48:15.662Z,12.10
2019-03-26T01:50:44.093Z,13.30
2019-03-26T01:53:12.528Z,11.83
2019-03-26T01:55:40.938Z,12.83
2019-03-26T01:58:09.343Z,13.07
2019-03-26T02:00:37.879Z,12.47
2019-03-26T02:03:06.292Z,13.07
2019-03-26T02:05:34.686Z,17.80
2019-03-26T02:08:03.082Z,13.27
2019-03-26T02:10:31.586Z,12.57
2019-03-26T02:13:00.006Z,13.37
2019-03-26T02:15:30.155Z,13.93
2019-03-26T02:17:59.286Z,15.70
2019-03-26T02:20:27.961Z,13.97
2019-03-26T02:22:56.521Z,15.47
2019-03-26T02:25:24.915Z,14.37
2019-03-26T02:27:53.379Z,15.93
2019-03-26T02:30:21.785Z,16.23
2019-03-26T02:32:50.249Z,17.17
2019-03-26T02:35:19.337Z,13.50
2019-03-26T02:37:47.968Z,15.67
2019-03-26T02:40:16.363Z,16.87
2019-03-26T02:42:44.778Z,22.70
2019-03-26T02:45:13.162Z,15.03
2019-03-26T02:47:41.890Z,16.33
2019-03-26T02:50:10.818Z,19.77
2019-03-26T02:52:39.167Z,16.80
2019-03-26T02:55:07.719Z,14.87
2019-03-26T02:57:36.121Z,15.33
2019-03-26T03:00:07.027Z,14.87
2019-03-26T03:02:35.510Z,12.93
2019-03-26T03:05:04.404Z,14.43
2019-03-26T03:07:32.799Z,15.10
2019-03-26T03:10:01.191Z,13.07
2019-03-26T03:12:29.604Z,16.93
2019-03-26T03:14:58.003Z,14.33
2019-03-26T03:17:26.406Z,14.10
2019-03-26T03:19:54.819Z,13.40
2019-03-26T03:22:23.252Z,11.97
2019-03-26T03:24:51.649Z,12.50
2019-03-26T03:27:20.114Z,13.87
2019-03-26T03:29:48.543Z,18.87
2019-03-26T03:32:17.032Z,16.50
2019-03-26T03:34:45.441Z,12.00
2019-03-26T03:37:14.007Z,11.77
2019-03-26T03:39:42.425Z,12.93
2019-03-26T03:42:10.833Z,13.43
2019-03-26T03:44:39.250Z,15.97
2019-03-26T03:47:08.420Z,16.07
2019-03-26T03:49:37.146Z,11.40
2019-03-26T03:52:05.835Z,12.37
2019-03-26T03:54:36.494Z,13.53
2019-03-26T03:57:06.946Z,11.53
2019-03-26T03:59:35.427Z,12.53
2019-03-26T04:02:03.835Z,13.90
2019-03-26T04:04:32.430Z,14.57
2019-03-26T04:07:00.910Z,13.90
2019-03-26T04:09:29.314Z,12.27
2019-03-26T04:11:57.718Z,13.27
2019-03-26T04:14:26.189Z,12.47
2019-03-26T04:16:54.605Z,14.07
2019-03-26T04:19:23.019Z,13.17
2019-03-26T04:21:56.166Z,15.37
2019-03-26T04:24:24.564Z,12.30
2019-03-26T04:26:52.969Z,17.10
2019-03-26T04:29:21.387Z,15.80
2019-03-26T04:31:49.809Z,15.83
2019-03-26T04:34:18.206Z,17.13
2019-03-26T04:36:46.726Z,13.80
2019-03-26T04:39:15.183Z,14.00
2019-03-26T04:41:43.670Z,14.70
2019-03-26T04:44:12.066Z,16.10
2019-03-26T04:46:40.485Z,13.77
2019-03-26T04:49:08.895Z,15.23
2019-03-26T04:51:37.314Z,15.70
2019-03-26T04:54:05.718Z,14.20
2019-03-26T04:56:34.179Z,15.57
2019-03-26T04:59:02.562Z,16.03
2019-03-26T05:01:30.986Z,22.20
2019-03-26T05:03:59.387Z,14.33
2019-03-26T05:06:37.849Z,16.10
2019-03-26T05:08:59.105Z,15.87
2019-03-26T05:11:27.507Z,17.30
2019-03-26T05:13:55.979Z,16.27
2019-03-26T05:16:24.562Z,12.97
2019-03-26T05:18:52.954Z,18.33
2019-03-26T05:21:21.362Z,15.13
2019-03-26T05:23:51.886Z,15.27
2019-03-26T05:26:19.940Z,19.87
2019-03-26T05:28:48.366Z,15.67
2019-03-26T05:31:16.783Z,15.53
2019-03-26T05:33:45.180Z,16.03
2019-03-26T05:36:13.659Z,15.60
2019-03-26T05:38:42.063Z,14.63
2019-03-26T05:41:10.765Z,16.97
2019-03-26T05:43:39.254Z,15.30
2019-03-26T05:46:13.429Z,17.07
2019-03-26T05:48:41.839Z,17.40
2019-03-26T05:51:10.267Z,18.60
2019-03-26T05:53:38.660Z,16.00
2019-03-26T05:56:07.068Z,16.33
2019-03-26T05:58:35.546Z,18.00
2019-03-26T06:01:04.024Z,16.93
2019-03-26T06:03:32.498Z,19.90
2019-03-26T06:06:00.941Z,19.43
2019-03-26T06:08:29.363Z,17.40
2019-03-26T06:10:57.767Z,18.03
2019-03-26T06:13:26.190Z,21.07
2019-03-26T06:15:54.573Z,17.27
2019-03-26T06:18:23.199Z,19.87
2019-03-26T06:20:52.895Z,17.27
2019-03-26T06:23:21.383Z,20.33
2019-03-26T06:25:49.784Z,18.73
2019-03-26T06:28:18.374Z,17.17
2019-03-26T06:30:47.079Z,17.87
2019-03-26T06:33:15.478Z,21.03
2019-03-26T06:35:43.881Z,23.73
2019-03-26T06:38:12.290Z,15.23
2019-03-26T06:40:40.742Z,16.37
2019-03-26T06:43:09.230Z,21.57
2019-03-26T06:45:37.704Z,15.63
2019-03-26T06:48:06.202Z,17.53
2019-03-26T06:50:35.139Z,16.07
2019-03-26T06:53:03.536Z,19.17
2019-03-26T06:55:32.222Z,15.50
2019-03-26T06:58:00.623Z,19.73
2019-03-26T07:00:34.292Z,14.87
2019-03-26T07:03:04.595Z,16.37
2019-03-26T07:05:33.034Z,13.10
2019-03-26T07:08:01.681Z,20.87
2019-03-26T07:10:30.731Z,20.20
2019-03-26T07:12:59.284Z,16.30
2019-03-26T07:15:27.857Z,15.93
2019-03-26T07:17:56.646Z,14.30
2019-03-26T07:20:25.139Z,14.13
2019-03-26T07:22:53.605Z,13.97
2019-03-26T07:25:22.298Z,16.07
2019-03-26T07:27:50.823Z,19.07
2019-03-26T07:30:41.945Z,12.83
2019-03-26T07:33:10.972Z,16.27
2019-03-26T07:35:39.760Z,13.77
2019-03-26T07:38:08.306Z,12.60
2019-03-26T07:40:36.698Z,10.97
2019-03-26T07:43:05.537Z,11.27
2019-03-26T07:45:34.018Z,9.97
2019-03-26T07:48:02.516Z,14.50
2019-03-26T07:50:30.916Z,12.17
2019-03-26T07:52:59.342Z,13.63
2019-03-26T07:55:27.746Z,11.57
2019-03-26T07:57:56.170Z,14.00
2019-03-26T08:00:35.059Z,14.70
2019-03-26T08:03:03.601Z,8.13
2019-03-26T08:05:32.018Z,10.73
2019-03-26T08:08:00.424Z,10.33
2019-03-26T08:10:28.886Z,9.63
2019-03-26T08:12:57.325Z,11.03
2019-03-26T08:15:25.692Z,7.80
2019-03-26T08:17:54.500Z,10.43
2019-03-26T08:20:22.978Z,9.53
2019-03-26T08:22:51.459Z,10.43
2019-03-26T08:25:19.879Z,9.90
2019-03-26T08:27:48.271Z,8.97
2019-03-26T08:30:16.673Z,10.33
2019-03-26T08:32:45.086Z,12.13
2019-03-26T08:35:13.719Z,10.73
2019-03-26T08:37:42.136Z,10.73
2019-03-26T08:40:10.765Z,12.70
2019-03-26T08:42:39.154Z,10.30
2019-03-26T08:45:08.404Z,10.90
2019-03-26T08:47:36.794Z,12.73
2019-03-26T08:50:08.637Z,10.20
2019-03-26T08:52:37.305Z,11.00
2019-03-26T08:55:10.285Z,8.00
2019-03-26T08:57:38.819Z,15.77
2019-03-26T09:00:09.207Z,10.37
2019-03-26T09:02:37.596Z,9.97
2019-03-26T09:05:07.984Z,9.57
2019-03-26T09:07:36.480Z,10.00
2019-03-26T09:10:07.599Z,9.80
2019-03-26T09:12:35.990Z,11.00
2019-03-26T09:15:07.260Z,8.43
2019-03-26T09:17:35.652Z,11.50
2019-03-26T09:20:06.591Z,7.80
2019-03-26T09:22:35.130Z,9.30
2019-03-26T09:25:05.250Z,7.67
2019-03-26T09:27:36.626Z,7.03
2019-03-26T09:30:07.847Z,6.27
2019-03-26T09:32:36.297Z,7.47
2019-03-26T09:35:06.868Z,5.63
2019-03-26T09:37:54.622Z,6.53
2019-03-26T09:40:23.054Z,5.57
2019-03-26T09:42:51.443Z,6.87
2019-03-26T09:45:20.117Z,8.33
2019-03-26T09:47:48.554Z,8.23
2019-03-26T09:50:20.020Z,5.57
2019-03-26T09:52:48.446Z,9.80
2019-03-26T09:55:16.859Z,6.87
2019-03-26T09:57:45.299Z,6.40
2019-03-26T10:00:13.883Z,7.43
2019-03-26T10:02:43.382Z,6.57
2019-03-26T10:05:12.573Z,7.83
2019-03-26T10:07:40.992Z,5.30
2019-03-26T10:10:09.998Z,6.47
2019-03-26T10:12:38.432Z,6.53
2019-03-26T10:15:07.074Z,5.63
2019-03-26T10:17:35.750Z,7.37
2019-03-26T10:20:06.794Z,5.93
2019-03-26T10:22:36.834Z,5.90
2019-03-26T10:25:11.229Z,6.90
2019-03-26T10:27:39.742Z,7.70
2019-03-26T10:30:10.540Z,5.30
2019-03-26T10:32:39.463Z,10.37
2019-03-26T10:35:09.134Z,6.23
2019-03-26T10:37:37.602Z,5.00
2019-03-26T10:40:06.943Z,9.50
2019-03-26T10:42:35.370Z,9.93
2019-03-26T10:45:05.549Z,6.83
2019-03-26T10:47:34.019Z,8.33
2019-03-26T10:50:02.482Z,7.73
2019-03-26T10:52:34.262Z,6.77
2019-03-26T10:55:01.275Z,6.43
2019-03-26T10:57:29.666Z,5.97
2019-03-26T10:59:58.082Z,6.37
2019-03-26T11:02:26.495Z,9.63
2019-03-26T11:04:55.546Z,6.70
2019-03-26T11:07:24.190Z,5.77
2019-03-26T11:09:52.662Z,6.10
2019-03-26T11:12:21.296Z,7.13
2019-03-26T11:14:50.124Z,7.33
2019-03-26T11:17:18.559Z,5.63
2019-03-26T11:19:46.990Z,6.33
2019-03-26T11:22:15.398Z,4.20
2019-03-26T11:24:43.792Z,4.30
2019-03-26T11:27:12.273Z,5.57
2019-03-26T11:29:40.679Z,4.87
2019-03-26T11:32:09.228Z,4.83
2019-03-26T11:34:37.614Z,5.73
2019-03-26T11:37:06.066Z,5.33
2019-03-26T11:39:34.458Z,7.00
2019-03-26T11:42:02.946Z,5.90
2019-03-26T11:44:31.330Z,5.23
2019-03-26T11:46:59.743Z,4.00
2019-03-26T11:49:28.167Z,5.00
2019-03-26T11:51:56.584Z,5.00
2019-03-26T11:54:24.982Z,3.17
2019-03-26T11:56:53.475Z,5.53
2019-03-26T11:59:22.026Z,3.37
2019-03-26T12:01:52.449Z,4.63
2019-03-26T12:04:20.688Z,5.20
2019-03-26T12:06:49.098Z,6.80
2019-03-26T12:09:17.819Z,4.30
2019-03-26T12:11:46.230Z,5.80
2019-03-26T12:14:14.622Z,4.30
2019-03-26T12:16:43.193Z,3.97
2019-03-26T12:19:11.598Z,3.93
2019-03-26T12:21:39.995Z,4.93
2019-03-26T12:24:08.437Z,4.47
2019-03-26T12:26:36.988Z,5.43
2019-03-26T12:29:05.636Z,3.13
2019-03-26T12:31:34.288Z,3.27
2019-03-26T12:34:03.922Z,3.43
2019-03-26T12:36:39.761Z,2.77
2019-03-26T12:39:04.219Z,3.43
2019-03-26T12:41:32.902Z,4.83
2019-03-26T12:44:01.331Z,5.00
2019-03-26T12:46:29.783Z,4.53
2019-03-26T12:48:58.194Z,4.33
2019-03-26T12:51:26.607Z,5.00
2019-03-26T12:53:55.018Z,6.13
2019-03-26T12:56:23.431Z,3.00
2019-03-26T12:58:52.080Z,7.13
2019-03-26T13:01:20.486Z,4.80
2019-03-26T13:03:48.876Z,3.90
2019-03-26T13:06:17.358Z,3.43
2019-03-26T13:08:45.763Z,4.93
2019-03-26T13:11:16.996Z,3.90
2019-03-26T13:13:44.337Z,3.13
2019-03-26T13:16:12.786Z,2.67
2019-03-26T13:18:41.431Z,4.03
2019-03-26T13:21:09.824Z,3.80
2019-03-26T13:23:38.445Z,6.20
2019-03-26T13:26:06.912Z,3.83
2019-03-26T13:28:35.322Z,5.07
2019-03-26T13:31:03.731Z,5.33
2019-03-26T13:33:32.142Z,4.23
2019-03-26T13:36:00.558Z,4.60
2019-03-26T13:38:28.991Z,4.50
2019-03-26T13:41:04.884Z,5.70
2019-03-26T13:43:33.326Z,5.80
2019-03-26T13:46:01.723Z,4.73
2019-03-26T13:48:30.119Z,4.77
2019-03-26T13:50:58.537Z,5.60
2019-03-26T13:53:27.067Z,5.00
2019-03-26T13:55:55.499Z,4.57
2019-03-26T13:58:23.895Z,4.13
2019-03-26T14:00:52.282Z,3.33
2019-03-26T14:03:20.806Z,5.07
2019-03-26T14:05:49.600Z,4.63
2019-03-26T14:08:18.058Z,5.27
2019-03-26T14:10:46.489Z,5.10
2019-03-26T14:13:14.918Z,6.33
2019-03-26T14:15:43.330Z,7.03
2019-03-26T14:18:11.751Z,6.27
2019-03-26T14:20:40.175Z,7.50
2019-03-26T14:23:08.604Z,7.37
2019-03-26T14:25:37.385Z,6.70
2019-03-26T14:28:05.827Z,5.97
2019-03-26T14:30:39.568Z,6.03
2019-03-26T14:33:08.548Z,6.00
2019-03-26T14:35:37.066Z,4.33
2019-03-26T14:38:05.783Z,5.17
2019-03-26T14:40:34.206Z,7.93
2019-03-26T14:43:02.673Z,5.27
2019-03-26T14:45:31.083Z,7.43
2019-03-26T14:47:59.503Z,8.93
2019-03-26T14:50:28.619Z,9.90
2019-03-26T14:52:57.053Z,7.13
2019-03-26T14:55:25.475Z,9.40
2019-03-26T14:57:54.295Z,5.80
2019-03-26T15:00:22.697Z,10.53
2019-03-26T15:02:51.281Z,7.20
2019-03-26T15:05:19.721Z,6.47
2019-03-26T15:07:48.222Z,12.63
2019-03-26T15:10:16.936Z,8.97
2019-03-26T15:12:45.351Z,8.70
2019-03-26T15:15:23.820Z,9.57
2019-03-26T15:17:52.231Z,8.00
2019-03-26T15:20:20.618Z,9.47
2019-03-26T15:22:49.056Z,6.80
2019-03-26T15:25:17.481Z,6.73
2019-03-26T15:27:45.879Z,6.40
2019-03-26T15:30:14.924Z,8.33
2019-03-26T15:32:43.494Z,7.00
2019-03-26T15:35:12.150Z,6.33
2019-03-26T15:37:40.774Z,8.57
2019-03-26T15:40:09.519Z,9.03
2019-03-26T15:42:37.926Z,8.27
2019-03-26T15:45:07.704Z,11.80
2019-03-26T15:47:36.237Z,9.30
2019-03-26T15:50:06.192Z,11.17
2019-03-26T15:52:34.663Z,9.70
2019-03-26T15:55:03.508Z,9.70
2019-03-26T15:57:31.973Z,12.70
2019-03-26T16:00:00.484Z,13.27
2019-03-26T16:02:28.918Z,13.23
2019-03-26T16:04:57.714Z,14.27
2019-03-26T16:07:26.115Z,14.37
2019-03-26T16:09:54.899Z,14.53
2019-03-26T16:12:23.482Z,13.03
2019-03-26T16:14:52.152Z,13.90
2019-03-26T16:17:20.559Z,16.70
2019-03-26T16:19:48.955Z,16.43
2019-03-26T16:22:17.941Z,13.50
2019-03-26T16:24:46.479Z,16.53
2019-03-26T16:27:14.905Z,16.07
2019-03-26T16:29:43.291Z,19.17
2019-03-26T16:32:11.712Z,19.40
2019-03-26T16:34:40.103Z,15.40
2019-03-26T16:37:08.587Z,14.67
2019-03-26T16:39:37.015Z,15.20
2019-03-26T16:42:05.438Z,14.10
2019-03-26T16:44:33.841Z,13.07
2019-03-26T16:47:02.528Z,12.37
2019-03-26T16:49:30.931Z,16.03
2019-03-26T16:51:59.341Z,14.13
2019-03-26T16:54:27.834Z,14.73
2019-03-26T16:56:56.259Z,15.50
2019-03-26T16:59:24.675Z,12.40
2019-03-26T17:01:53.418Z,13.87
2019-03-26T17:04:21.892Z,15.50
2019-03-26T17:06:50.370Z,13.80
2019-03-26T17:09:19.039Z,12.70
2019-03-26T17:11:47.437Z,12.43
2019-03-26T17:14:15.855Z,14.50
2019-03-26T17:16:44.243Z,13.60
2019-03-26T17:19:12.654Z,10.50
2019-03-26T17:21:41.050Z,15.17
2019-03-26T17:24:09.477Z,13.03
2019-03-26T17:26:37.870Z,14.53
2019-03-26T17:29:06.278Z,13.80
2019-03-26T17:31:34.708Z,14.20
2019-03-26T17:34:03.212Z,14.37
2019-03-26T17:36:31.614Z,14.37
2019-03-26T17:39:00.065Z,15.33
2019-03-26T17:41:28.693Z,10.37
2019-03-26T17:43:57.131Z,13.30
2019-03-26T17:46:25.746Z,12.30
2019-03-26T17:48:54.140Z,12.70
2019-03-26T17:51:22.642Z,12.30
2019-03-26T17:53:51.046Z,17.20
2019-03-26T17:56:20.046Z,14.73
2019-03-26T17:58:48.467Z,13.63
2019-03-26T18:01:16.998Z,11.77
2019-03-26T18:03:45.719Z,14.50
2019-03-26T18:06:14.128Z,14.77
2019-03-26T18:08:42.526Z,14.70
2019-03-26T18:11:10.938Z,11.93
2019-03-26T18:13:39.337Z,14.40
2019-03-26T18:16:07.747Z,11.63
2019-03-26T18:18:36.228Z,12.20
2019-03-26T18:21:05.825Z,15.53
2019-03-26T18:23:34.253Z,12.87
2019-03-26T18:26:02.668Z,12.20
2019-03-26T18:28:31.079Z,15.80
2019-03-26T18:30:59.647Z,14.90
2019-03-26T18:33:28.349Z,13.73
2019-03-26T18:35:56.811Z,14.83
2019-03-26T18:38:25.248Z,16.10
2019-03-26T18:40:53.735Z,16.13
2019-03-26T18:43:22.146Z,14.40
2019-03-26T18:45:50.660Z,31.87
2019-03-26T18:48:19.315Z,19.07
2019-03-26T18:50:47.776Z,14.10
2019-03-26T18:53:16.242Z,13.73
2019-03-26T18:55:44.642Z,14.07
2019-03-26T18:58:13.052Z,12.97
2019-03-26T19:00:41.515Z,11.33
2019-03-26T19:03:09.915Z,16.67
2019-03-26T19:05:38.330Z,15.83
2019-03-26T19:08:06.907Z,12.87
2019-03-26T19:10:36.036Z,14.77
2019-03-26T19:13:18.035Z,15.43
2019-03-26T19:15:34.909Z,15.33
2019-03-26T19:18:03.568Z,12.13
2019-03-26T19:20:31.974Z,16.70
2019-03-26T19:23:00.465Z,17.47
2019-03-26T19:25:29.032Z,17.17
2019-03-26T19:27:57.527Z,14.57
2019-03-26T19:30:25.983Z,18.10
2019-03-26T19:32:57.502Z,15.73
2019-03-26T19:35:24.519Z,16.03
2019-03-26T19:37:52.979Z,18.17
2019-03-26T19:40:21.391Z,18.23
2019-03-26T19:42:49.824Z,19.93
2019-03-26T19:45:18.221Z,18.00
2019-03-26T19:47:46.622Z,19.03
2019-03-26T19:50:15.467Z,17.43
2019-03-26T19:52:43.865Z,23.57
2019-03-26T19:55:12.510Z,21.27
2019-03-26T19:57:41.000Z,18.53
2019-03-26T20:00:12.554Z,21.77
2019-03-26T20:02:40.963Z,23.50
2019-03-26T20:05:10.191Z,14.47
2019-03-26T20:07:38.631Z,20.17
2019-03-26T20:10:08.111Z,20.13
2019-03-26T20:12:36.536Z,18.07
2019-03-26T20:15:08.437Z,16.37
2019-03-26T20:17:37.823Z,17.07
2019-03-26T20:20:07.393Z,16.23
2019-03-26T20:22:35.822Z,19.47
2019-03-26T20:25:06.069Z,19.63
2019-03-26T20:27:34.499Z,17.77
2019-03-26T20:30:03.387Z,17.30
2019-03-26T20:32:31.854Z,17.43
2019-03-26T20:35:00.638Z,17.20
2019-03-26T20:37:29.034Z,19.30
2019-03-26T20:39:57.451Z,19.80
2019-03-26T20:42:25.872Z,19.60
2019-03-26T20:44:54.270Z,18.50
2019-03-26T20:47:22.667Z,17.67
2019-03-26T20:49:51.188Z,18.60
2019-03-26T20:52:19.717Z,17.30
2019-03-26T20:54:48.135Z,15.57
2019-03-26T20:57:16.594Z,16.33
2019-03-26T20:59:45.071Z,17.30
2019-03-26T21:02:13.506Z,18.10
2019-03-26T21:04:41.959Z,16.07
2019-03-26T21:07:10.365Z,16.10
2019-03-26T21:09:38.771Z,20.37
2019-03-26T21:12:07.199Z,20.53
2019-03-26T21:14:35.674Z,21.50
2019-03-26T21:17:04.285Z,20.33
2019-03-26T21:19:32.960Z,21.57
2019-03-26T21:22:01.355Z,21.27
2019-03-26T21:24:29.803Z,18.43
2019-03-26T21:26:58.227Z,18.80
2019-03-26T21:29:26.616Z,20.10
2019-03-26T21:31:55.018Z,19.03
2019-03-26T21:34:30.473Z,18.57
2019-03-26T21:36:53.578Z,14.33
2019-03-26T21:39:22.044Z,14.63
2019-03-26T21:41:50.478Z,18.07
2019-03-26T21:44:18.870Z,22.23
2019-03-26T21:46:47.359Z,15.73
2019-03-26T21:49:15.774Z,16.67
2019-03-26T21:51:44.166Z,16.13
2019-03-26T21:54:12.583Z,18.70
2019-03-26T21:56:46.281Z,16.23
2019-03-26T21:59:14.954Z,23.80
2019-03-26T22:01:43.410Z,15.80
2019-03-26T22:04:11.811Z,15.97
2019-03-26T22:06:40.222Z,17.77
2019-03-26T22:09:09.090Z,18.83
2019-03-26T22:11:49.080Z,15.70
2019-03-26T22:14:17.253Z,13.57
2019-03-26T22:16:37.887Z,14.37
2019-03-26T22:19:06.282Z,15.03
2019-03-26T22:21:34.679Z,12.70
2019-03-26T22:24:03.100Z,13.13
2019-03-26T22:26:31.492Z,16.23
2019-03-26T22:28:59.974Z,16.27
2019-03-26T22:31:28.467Z,13.80
2019-03-26T22:33:56.869Z,13.60
2019-03-26T22:36:25.266Z,10.37
2019-03-26T22:38:53.688Z,12.80
2019-03-26T22:41:22.086Z,13.80
2019-03-26T22:43:50.565Z,12.37
2019-03-26T22:46:18.978Z,11.03
2019-03-26T22:48:47.431Z,16.23
2019-03-26T22:51:15.832Z,18.87
2019-03-26T22:53:44.251Z,13.23
2019-03-26T22:56:12.726Z,11.83
2019-03-26T22:58:41.119Z,11.30
2019-03-26T23:01:09.594Z,12.60
2019-03-26T23:03:37.991Z,13.30
2019-03-26T23:06:06.538Z,15.70
2019-03-26T23:08:35.031Z,12.47
2019-03-26T23:11:03.423Z,14.17
2019-03-26T23:13:31.829Z,16.27
2019-03-26T23:16:00.223Z,18.53
2019-03-26T23:18:28.614Z,11.20
2019-03-26T23:20:57.015Z,10.77
2019-03-26T23:23:25.408Z,13.07
2019-03-26T23:25:53.814Z,12.87
2019-03-26T23:28:22.214Z,11.70
2019-03-26T23:30:50.754Z,15.57
2019-03-26T23:33:19.161Z,10.73
2019-03-26T23:35:47.626Z,13.93
2019-03-26T23:38:16.018Z,14.97
2019-03-26T23:40:44.413Z,8.60
2019-03-26T23:43:12.839Z,11.57
2019-03-26T23:45:41.243Z,11.20
2019-03-26T23:48:09.670Z,12.33
2019-03-26T23:50:38.118Z,14.40
2019-03-26T23:53:06.524Z,12.83
2019-03-26T23:55:34.913Z,11.60
2019-03-26T23:58:03.360Z,13.17
